• Join FlightAware (Why Join?)
  • Login
  • US Flag 
07:36AM EDT


 

Airport Tracker/Info


-or-


 

Live Flight TrackerFlight Track Log ✈ EJA583 ✈ 18-Sep-2013 ✈ KBTR - KCOS

Flight Track Log - Related Links

Times and Time Zones

All times are in EDT time to prevent confusion due to time zone crossing. See the EJA583 flight status page for this flight to view local times or setup timezone preferences in your user account.

Time Position Orientation Groundspeed Altitude Reporting Facility
EDT Latitude Longitude Course Direction KTS MPH feet Rate Location/Type
11:54AM 30.5478 -91.1369 342° North 167 192 40,000  Level Houston Center
11:55AM 30.5925 -91.1536 342° North 183 211 4,400 -15,840 Descending Houston Center
11:56AM 30.6228 -91.2194 298° West 231 266 7,100 2,520 Climbing Houston Center
11:57AM 30.6603 -91.2967 299° West 269 310 9,700 2,520 Climbing Houston Center
11:58AM 30.6989 -91.3769 299° West 283 326 12,400 2,220 Climbing Houston Center
12:00PM 30.7475 -91.4689 302° West 310 357 14,300 1,800 Climbing Houston Center
12:01PM 30.8050 -91.5839 300° West 339 390 16,200 1,680 Climbing Houston Center
12:02PM 30.8550 -91.6825 301° West 350 403 17,800 1,500 Climbing Houston Center
12:03PM 30.9042 -91.7833 300° West 358 412 19,400 1,500 Climbing Houston Center
12:04PM 30.9533 -91.8828 300° West 355 409 21,000 1,500 Climbing Houston Center
12:05PM 31.0025 -91.9819 300° West 354 407 22,600 1,440 Climbing Houston Center
12:06PM 31.0414 -92.0850 294° West 351 404 24,100 1,620 Climbing Houston Center
12:07PM 31.0678 -92.2167 283° West 347 399 26,000 1,620 Climbing Houston Center
12:08PM 31.0906 -92.3278 283° West 351 404 27,500 1,440 Climbing Houston Center
12:09PM 31.1142 -92.4372 284° West 347 399 29,000 1,500 Climbing Houston Center
12:10PM 31.1733 -92.5258 308° West 341 392 30,600 1,500 Climbing Houston Center
12:11PM 31.2336 -92.6172 308° West 346 398 32,100 1,500 Climbing Houston Center
12:12PM 31.2942 -92.7058 309° West 348 400 33,700 1,260 Climbing Houston Center
12:13PM 31.3533 -92.7925 309° West 344 396 34,800 600 Climbing Houston Center
12:14PM 31.4192 -92.8775 312° West 349 402 35,000 540 Climbing Houston Center
12:15PM 31.5050 -92.9883 312° West 379 436 36,000 900 Climbing Houston Center
12:16PM 31.5761 -93.0803 312° West 380 437 36,900 900 Climbing Houston Center
12:17PM 31.6467 -93.1717 312° West 380 437 37,900 960 Climbing Houston Center
12:18PM 31.7178 -93.2647 312° West 381 438 38,900 900 Climbing Houston Center
12:19PM 31.7875 -93.3553 312° West 377 434 39,800 480 Climbing Houston Center
12:20PM 31.8592 -93.4483 312° West 381 438 40,000 60 Climbing Houston Center
12:21PM 31.9494 -93.5658 312° West 398 458 40,000  Level Houston Center
12:22PM 32.0231 -93.6639 312° West 401 461 40,000  Level Houston Center
12:23PM 32.0975 -93.7600 312° West 397 457 40,000  Level Houston Center
12:24PM 32.1703 -93.8578 311° West 397 457 40,000  Level Houston Center
12:26PM 32.2517 -93.9622 313° West 397 457 40,000  Level Fort Worth Center
12:26PM 32.3233 -94.0603 311° West 397 457 40,000  Level Fort Worth Center
12:27PM 32.3969 -94.1608 311° West 397 457 40,000  Level Fort Worth Center
12:28PM 32.4703 -94.2592 311° West 402 463 40,000  Level Fort Worth Center
12:29PM 32.5525 -94.3697 311° West 402 463 40,000  Level Fort Worth Center
12:30PM 32.6236 -94.4683 311° West 402 463 40,000  Level Fort Worth Center
12:31PM 32.6989 -94.5669 312° West 402 463 40,000  Level Fort Worth Center
12:32PM 32.7722 -94.6686 311° West 402 463 40,000  Level Fort Worth Center
12:33PM 32.8453 -94.7675 311° West 402 463 40,000  Level Fort Worth Center
12:35PM 32.9206 -94.8719 311° West 402 463 40,000  Level Fort Worth Center
12:35PM 32.9914 -94.9689 311° West 397 457 40,000  Level Fort Worth Center
12:36PM 33.0661 -95.0686 312° West 402 463 40,000  Level Fort Worth Center
12:38PM 33.1411 -95.1706 311° West 402 463 40,000  Level Fort Worth Center
12:38PM 33.2117 -95.2681 311° West 402 463 40,000  Level Fort Worth Center
12:39PM 33.2844 -95.3708 310° West 402 463 40,000  Level Fort Worth Center
12:41PM 33.3592 -95.4711 312° West 402 463 40,000  Level Fort Worth Center
12:41PM 33.4317 -95.5739 310° West 402 463 40,000  Level Fort Worth Center
12:42PM 33.5039 -95.6772 310° West 402 463 40,000  Level Fort Worth Center
12:43PM 33.5719 -95.7656 313° West 395 455 40,000  Level Fort Worth Center
12:44PM 33.6464 -95.8639 312° West 395 455 40,000  Level Fort Worth Center
12:45PM 33.7183 -95.9650 311° West 401 461 40,000  Level Fort Worth Center
12:46PM 33.8011 -96.0811 311° West 401 461 40,000  Level Fort Worth Center
12:47PM 33.8689 -96.1778 310° West 396 456 40,000  Level Fort Worth Center
12:48PM 33.9386 -96.2744 311° West 396 456 40,000  Level Fort Worth Center
12:50PM 34.0064 -96.3736 310° West 391 450 40,000  Level Fort Worth Center
12:50PM 34.0739 -96.4681 311° West 385 443 40,000  Level Fort Worth Center
12:51PM 34.1286 -96.5578 306° West 379 436 40,000  Level Fort Worth Center
12:53PM 34.1981 -96.6528 311° West 372 428 40,000  Level Fort Worth Center
12:53PM 34.2633 -96.7500 309° West 372 428 40,000  Level Fort Worth Center
12:54PM 34.3306 -96.8425 311° West 372 428 40,000  Level Fort Worth Center
12:55PM 34.3978 -96.9403 310° West 372 428 40,000  Level Fort Worth Center
12:56PM 34.4650 -97.0408 309° West 377 434 40,000  Level Fort Worth Center
12:57PM 34.5339 -97.1386 311° West 377 434 40,000  Level Fort Worth Center
12:59PM 34.6031 -97.2394 310° West 377 434 40,000  Level Fort Worth Center
12:59PM 34.6719 -97.3378 310° West 377 434 40,000  Level Fort Worth Center
01:00PM 34.7408 -97.4364 310° West 377 434 40,000  Level Fort Worth Center
01:01PM 34.8075 -97.5375 309° West 377 434 40,000  Level Fort Worth Center
01:02PM 34.8783 -97.6389 310° West 377 434 40,000  Level Fort Worth Center
01:04PM 34.9447 -97.7403 309° West 377 434 40,000  Level Fort Worth Center
01:05PM 35.0156 -97.8394 311° West 377 434 40,000  Level Fort Worth Center
01:05PM 35.0839 -97.9414 309° West 382 440 40,000  Level Fort Worth Center
01:06PM 35.1583 -98.0536 309° West 382 440 40,000  Level Fort Worth Center
01:07PM 35.2267 -98.1531 310° West 382 440 40,000  Level Fort Worth Center
01:09PM 35.3444 -98.3256 310° West 384 442 40,000  Level Kansas City Center
01:10PM 35.4111 -98.4258 309° West 384 442 40,000  Level Kansas City Center
01:11PM 35.4789 -98.5275 309° West 384 442 40,000  Level Kansas City Center
01:12PM 35.5594 -98.6508 309° West 383 441 40,000  Level Kansas City Center
01:14PM 35.6281 -98.7522 310° West 385 443 40,000  Level Kansas City Center
01:15PM 35.6953 -98.8533 309° West 382 440 40,000  Level Kansas City Center
01:16PM 35.7633 -98.9578 309° West 386 444 40,000  Level Kansas City Center
01:17PM 35.8292 -99.0594 309° West 384 442 40,000  Level Kansas City Center
01:18PM 35.8956 -99.1628 308° West 384 442 40,000  Level Kansas City Center
01:19PM 35.9661 -99.2650 310° West 387 445 40,000  Level Kansas City Center
01:20PM 36.0378 -99.3797 308° West 387 445 40,000  Level Kansas City Center
01:21PM 36.1053 -99.4836 309° West 386 444 40,000  Level Kansas City Center
01:23PM 36.2209 -99.6613 309° West  Level FlightAware Approximate
01:23PM 36.2531 -99.7119 308° West 386 444 40,000  Level Kansas City Center
01:26PM 36.4531 -100.0258 308° West 385 443 40,000  Level Kansas City Center
01:27PM 36.5203 -100.1306 309° West 386 444 40,000  Level Kansas City Center
01:28PM 36.5858 -100.2356 308° West 385 443 40,000  Level Kansas City Center
01:29PM 36.6514 -100.3403 308° West 383 441 40,000  Level Kansas City Center
01:30PM 36.6707 -100.3763 308° West  Level FlightAware Approximate
01:30PM 36.7300 -100.4669 308° West 383 441 40,000  Level Kansas City Center
01:31PM 36.7936 -100.5661 309° West 383 441 40,000  Level Kansas City Center
01:32PM 36.8661 -100.6839 308° West 383 441 40,000  Level Kansas City Center
01:33PM 36.9292 -100.7856 308° West 384 442 40,000  Level Kansas City Center
01:34PM 36.9925 -100.8867 308° West 385 443 40,000  Level Kansas City Center
01:35PM 37.0625 -101.0072 306° West 384 442 40,000  Level Kansas City Center
01:36PM 37.1164 -101.1164 302° West 383 441 40,000  Level Kansas City Center
01:37PM 37.1797 -101.2436 302° West 384 442 40,000  Level Kansas City Center
01:38PM 37.2333 -101.3533 302° West 384 442 40,000  Level Kansas City Center
01:39PM 37.2972 -101.4836 302° West 388 447 40,000  Level Kansas City Center
01:40PM 37.3528 -101.5944 302° West 389 448 40,000  Level Kansas City Center
01:41PM 37.4167 -101.7267 301° West 393 452 40,000  Level Kansas City Center
01:42PM 37.4717 -101.8386 302° West 393 452 40,000  Level Kansas City Center
01:43PM 37.5353 -101.9686 302° West 391 450 40,000  Level Kansas City Center
01:45PM 37.5894 -102.0808 301° West 392 451 40,000  Level Kansas City Center
01:46PM 37.6431 -102.1922 301° West 389 448 40,000  Level Kansas City Center
01:47PM 37.7489 -102.2761 328° Northwest 416 479 40,000  Level Kansas City Center
01:48PM 37.8628 -102.2794 359° North 424 488 40,000 -300 Level Kansas City Center
01:49PM 37.9950 -102.2869 357° North 425 489 39,400 -780 Descending Kansas City Center
01:50PM 38.0769 -102.3722 321° Northwest 411 473 38,400 -1,320 Descending Kansas City Center
01:51PM 38.1411 -102.5044 302° West 395 455 36,700 -1,440 Descending Kansas City Center
01:52PM 38.2272 -102.6808 302° West 409 471 34,600 -1,440 Descending Denver Center
01:54PM 38.3028 -102.8372 302° West 407 468 32,700 -1,620 Descending Denver Center
01:55PM 38.3692 -102.9731 302° West 406 467 31,000 -1,860 Descending Denver Center
01:56PM 38.4333 -103.1061 302° West 397 457 28,900 -2,040 Descending Denver Center
01:57PM 38.4878 -103.2222 301° West 397 457 26,800 -1,800 Descending Denver Center
01:58PM 38.5367 -103.3217 302° West 413 475 25,200 -2,100 Descending Denver Center
01:59PM 38.6131 -103.4822 301° West 409 471 22,500 -2,340 Descending Denver Center
02:00PM 38.6756 -103.6150 301° West 394 453 20,400 -1,800 Descending Denver Center
02:01PM 38.7283 -103.7247 302° West 384 442 18,900 -1,860 Descending Denver Center
02:02PM 38.7992 -103.8714 302° West 355 409 16,100 -2,100 Descending Denver Center
02:03PM 38.8333 -103.9500 299° West 353 406 14,600 -1,260 Descending Denver Center
02:04PM 38.8692 -104.0450 296° West 324 373 13,900 -660 Descending Denver Center
02:05PM 38.8761 -104.1783 274° West 333 383 13,300 -780 Descending Denver Center
02:06PM 38.8814 -104.2783 274° West 342 394 12,600 -1,200 Descending Denver Center
02:06PM 38.8819 -104.3153 271° West 344 396 12,100 -1,500 Descending Denver Center
02:07PM 38.8967 -104.4222 280° West 327 376 10,700 -1,440 Descending Denver Center
02:08PM 38.9175 -104.5272 284° West 301 346 9,200 -900 Descending Denver Center
02:09PM 38.9711 -104.5900 318° Northwest 266 306 8,900 -120 Descending Denver Center
02:10PM 38.9925 -104.6422 298° West 234 269 9,000  Climbing Denver Center
02:10PM 38.9900 -104.6628 261° West 223 257 8,900 -240 Descending Denver Center
02:11PM 38.9478 -104.7086 220° Southwest 205 236 8,700 -240 Descending Denver Center
02:12PM 38.8889 -104.7347 199° South 200 230 8,400 -300 Descending Denver Center
02:14PM 38.8000 -104.7000 180° South  Level FlightAware Approximate
02:21PM 38.8058 -104.7008 180° South  Level Estimated